Latest Weather Observations for Sydney Airport

IDN60801

Issued at 8:52 pm EST Wednesday 21 April 2021 (issued every 10 minutes, with the page automatically refreshed every 10 minutes)

About weather observations | Map of weather stations | Latest weather observations for NSW | Other Formats
Station Details ID: 066037 Name: SYDNEY AIRPORT AMO Lat: -33.95 Lon: 151.17 Height: 6.0 m
Data from the previous 72 hours. | See also: Recent months at Sydney Airport
Date/Time
EST
Temp
°C
App
Temp
°C
Dew
Point
°C
Rel
Hum
%
Delta-T
°C
Wind Press
QNH
hPa
Press
MSL
hPa
Rain since
9am
mm
Dir  Spd
km/h
Gust
km/h
Spd
kts
Gust
kts
21/08:30pm 17.8 14.2 11.8 68 3.3 SSE 22 32 12 17 1014.7 1014.7 0.2
21/08:00pm 17.6 14.6 11.9 69 3.1 S 19 24 10 13 1015.0 1015.0 0.2
21/07:30pm 17.6 14.0 10.7 64 3.7 S 20 28 11 15 1015.0 1015.0 0.2
21/07:00pm 17.6 13.3 10.9 65 3.6 S 24 28 13 15 1014.7 1014.7 0.2
21/06:30pm 17.8 13.6 9.9 60 4.2 S 22 28 12 15 1014.1 1014.1 0.2
21/06:00pm 17.9 13.5 10.5 62 4.0 S 24 30 13 16 1013.9 1013.9 0.2
21/05:30pm 18.0 14.1 9.6 58 4.4 S 20 28 11 15 1013.8 1013.8 0.2
21/05:00pm 18.1 13.7 8.9 55 4.8 S 22 28 12 15 1013.5 1013.5 0.2
21/04:30pm 18.2 13.6 9.5 57 4.6 S 24 30 13 16 1013.3 1013.3 0.2
21/04:00pm 18.3 13.3 9.4 56 4.7 S 26 32 14 17 1013.2 1013.2 0.2
21/03:30pm 18.3 13.5 8.8 54 4.9 S 24 30 13 16 1013.0 1013.0 0.2
21/03:00pm 18.4 13.6 8.7 53 5.0 S 24 30 13 16 1013.0 1013.0 0.2
21/02:30pm 18.3 13.2 9.1 55 4.8 S 26 35 14 19 1013.0 1013.0 0.2
21/02:00pm 18.2 12.5 8.2 52 5.1 SSE 28 37 15 20 1012.9 1012.9 0.2
21/01:30pm 18.3 12.2 6.8 47 5.7 SSE 28 33 15 18 1012.8 1012.8 0.2
21/01:00pm 18.4 12.4 6.9 47 5.8 SSE 28 33 15 18 1013.0 1013.0 0.2
21/12:30pm 18.4 12.4 7.2 48 5.6 SSE 28 33 15 18 1013.2 1013.2 0.2
21/12:00pm 18.3 12.5 6.2 45 6.0 S 26 37 14 20 1013.3 1013.3 0.2
21/11:30am 18.2 12.4 6.4 46 5.8 S 26 35 14 19 1013.6 1013.6 0.2
21/11:00am 17.9 12.0 7.6 51 5.2 SSW 28 32 15 17 1013.4 1013.4 0.2
21/10:30am 17.5 12.4 7.8 53 4.9 SSW 24 32 13 17 1013.5 1013.5 0.0
21/10:00am 17.3 12.8 8.7 57 4.4 SSW 22 30 12 16 1013.7 1013.7 0.0
21/09:30am 16.6 11.4 7.3 54 4.6 SW 24 33 13 18 1013.6 1013.6 0.0
21/09:00am 16.2 10.2 6.9 54 4.6 SW 28 37 15 20 1013.4 1013.4 0.0
21/08:30am 15.6 9.2 6.9 56 4.3 WSW 30 37 16 20 1013.3 1013.3 0.0
21/08:00am 15.0 7.7 5.5 53 4.5 SW 33 43 18 23 1012.9 1012.9 0.0
21/07:30am 15.1 7.3 5.0 51 4.7 WSW 35 48 19 26 1012.3 1012.3 0.0
21/07:00am 14.9 7.8 5.4 53 4.5 WSW 32 39 17 21 1011.9 1011.9 0.0
21/06:30am 14.7 7.1 6.0 56 4.2 SW 35 44 19 24 1011.3 1011.3 0.0
21/06:00am 15.2 8.9 7.5 60 3.8 SW 30 37 16 20 1011.0 1011.0 0.0
21/05:30am 15.3 10.2 7.8 61 3.7 WSW 24 30 13 16 1010.6 1010.6 0.0
21/05:00am 15.9 9.2 7.4 57 4.2 WSW 32 41 17 22 1010.1 1010.1 0.0
21/04:30am 16.8 9.9 7.2 53 4.8 WSW 33 41 18 22 1010.1 1010.1 0.0
21/04:00am 16.3 8.9 8.3 59 4.1 WSW 37 50 20 27 1009.7 1009.7 0.0
21/03:56am 16.8 9.7 8.0 56 4.5 SW 35 50 19 27 1009.6 1009.6 0.0
21/03:30am 16.4 11.2 7.1 54 4.6 WSW 24 32 13 17 1009.5 1009.5 0.0
21/03:00am 16.4 11.7 7.6 56 4.4 WSW 22 33 12 18 1009.5 1009.5 0.0
21/02:30am 15.3 11.4 7.1 58 4.0 WSW 17 22 9 12 1009.6 1009.6 0.0
21/02:00am 15.1 10.0 6.1 55 4.3 WSW 22 30 12 16 1009.5 1009.5 0.0
21/01:30am 16.3 12.5 5.9 50 5.0 WNW 15 19 8 10 1009.2 1009.2 0.0
21/01:00am 16.8 12.5 5.4 47 5.5 NNW 17 19 9 10 1009.2 1009.2 0.0
21/12:30am 16.9 12.6 7.0 52 4.9 N 19 19 10 10 1009.2 1009.2 0.0
21/12:00am 16.9 13.0 7.3 53 4.8 N 17 17 9 9 1009.6 1009.6 0.0
 
Date/Time
EST
Temp
°C
App
Temp
°C
Dew
Point
°C
Rel
Hum
%
Delta-T
°C
Wind Press
QNH
hPa
Press
MSL
hPa
Rain since
9am
mm
Dir  Spd
km/h
Gust
km/h
Spd
kts
Gust
kts
20/11:30pm 17.6 15.0 7.6 52 5.0 N 11 13 6 7 1010.0 1010.0 0.0
20/11:00pm 17.7 15.4 7.4 51 5.2 NNW 9 11 5 6 1010.3 1010.3 0.0
20/10:30pm 18.0 15.0 7.7 51 5.2 N 13 17 7 9 1010.3 1010.3 0.0
20/10:00pm 18.7 16.4 7.5 48 5.7 NE 9 13 5 7 1010.6 1010.6 0.0
20/09:30pm 19.3 17.0 7.4 46 6.0 NNW 9 13 5 7 1010.9 1010.9 0.0
20/09:00pm 19.3 18.6 7.1 45 6.2 CALM 0 6 0 3 1011.1 1011.1 0.0
20/08:30pm 20.2 17.8 6.9 42 6.7 SSW 9 11 5 6 1011.1 1011.1 0.0
20/08:00pm 21.3 16.6 5.2 35 8.0 W 19 24 10 13 1011.1 1011.1 0.0
20/07:30pm 21.5 17.1 5.0 34 8.1 WNW 17 28 9 15 1010.9 1010.9 0.0
20/07:00pm 20.7 19.1 8.0 44 6.6 N 6 11 3 6 1010.7 1010.7 0.0
20/06:30pm 20.6 18.5 8.3 45 6.4 NE 9 11 5 6 1010.8 1010.8 0.0
20/06:00pm 21.3 19.1 7.9 42 7.0 NNE 9 11 5 6 1010.5 1010.5 0.0
20/05:30pm 21.6 19.4 7.8 41 7.2 N 9 11 5 6 1010.5 1010.5 0.0
20/05:00pm 21.9 19.4 8.1 41 7.2 N 11 15 6 8 1010.3 1010.3 0.0
20/04:30pm 22.4 19.0 7.8 39 7.6 N 15 17 8 9 1010.4 1010.4 0.0
20/04:00pm 22.4 18.9 7.0 37 7.9 N 15 19 8 10 1010.3 1010.3 0.0
20/03:30pm 23.5 19.9 6.7 34 8.7 N 15 22 8 12 1010.6 1010.6 0.0
20/03:00pm 23.2 19.7 5.6 32 8.9 NNW 13 19 7 10 1010.7 1010.7 0.0
20/02:30pm 22.5 19.9 5.9 34 8.4 WNW 9 13 5 7 1010.8 1010.8 0.0
20/02:00pm 22.7 18.8 5.2 32 8.7 WNW 15 19 8 10 1011.2 1011.2 0.0
20/01:30pm 21.5 18.2 4.6 33 8.3 WNW 11 15 6 8 1011.6 1011.6 0.0
20/01:00pm 22.0 17.6 4.6 32 8.5 WNW 17 24 9 13 1012.2 1012.2 0.0
20/12:30pm 22.4 17.3 4.0 30 8.9 W 20 35 11 19 1012.8 1012.8 0.0
20/12:00pm 21.5 18.2 4.6 33 8.3 WNW 11 17 6 9 1013.3 1013.3 0.0
20/11:30am 22.6 18.9 4.6 31 8.9 WNW 13 19 7 10 1013.7 1013.7 0.0
20/11:00am 21.7 18.0 4.7 33 8.3 NW 13 19 7 10 1014.7 1014.7 0.0
20/10:30am 21.7 18.2 5.6 35 8.0 NW 13 19 7 10 1014.9 1014.9 0.0
20/10:00am 20.3 17.0 6.3 40 7.0 NW 13 22 7 12 1015.3 1015.3 0.0
20/09:30am 19.7 17.0 7.4 45 6.3 NW 11 17 6 9 1015.5 1015.5 0.0
20/09:00am 18.2 14.7 7.3 49 5.5 NW 15 20 8 11 1016.0 1016.0 0.0
20/08:30am 16.5 12.6 7.2 54 4.6 WNW 17 20 9 11 1016.1 1016.1 0.0
20/08:00am 15.2 12.2 7.5 60 3.8 NW 13 17 7 9 1016.0 1016.0 0.0
20/07:30am 14.6 12.3 7.4 62 3.5 NW 9 11 5 6 1016.0 1016.0 0.0
20/07:00am 13.6 10.7 8.0 69 2.8 NW 13 15 7 8 1015.7 1015.7 0.0
20/06:30am 13.3 10.4 8.2 71 2.5 NNW 13 17 7 9 1015.5 1015.5 0.0
20/06:00am 12.6 9.6 7.9 73 2.3 NNW 13 15 7 8 1015.3 1015.3 0.0
20/05:30am 13.2 10.2 7.9 70 2.6 NNW 13 15 7 8 1015.3 1015.3 0.0
20/05:00am 13.1 10.7 8.6 74 2.2 NW 11 15 6 8 1015.0 1015.0 0.0
20/04:30am 12.9 9.8 9.0 77 2.0 NW 15 19 8 10 1014.9 1014.9 0.0
20/04:00am 12.7 9.4 9.5 81 1.6 NW 17 19 9 10 1014.7 1014.7 0.0
20/03:30am 12.9 10.1 10.1 83 1.4 NW 15 17 8 9 1014.3 1014.3 0.0
20/03:00am 13.3 10.7 10.7 84 1.4 WNW 15 17 8 9 1014.2 1014.2 0.0
20/02:30am 13.9 11.4 11.1 83 1.5 WNW 15 17 8 9 1014.5 1014.5 0.0
20/02:00am 13.8 11.5 11.7 87 1.1 NW 15 19 8 10 1014.7 1014.7 0.0
20/01:30am 14.2 12.0 12.1 87 1.1 NW 15 17 8 9 1014.9 1014.9 0.0
20/01:00am 14.5 11.9 12.0 85 1.3 NW 17 20 9 11 1015.0 1015.0 0.0
20/12:30am 15.1 13.1 12.6 85 1.4 NW 15 17 8 9 1015.2 1015.2 0.0
20/12:00am 16.0 14.8 12.9 82 1.7 WNW 11 17 6 9 1015.2 1015.2 0.0
 
Date/Time
EST
Temp
°C
App
Temp
°C
Dew
Point
°C
Rel
Hum
%
Delta-T
°C
Wind Press
QNH
hPa
Press
MSL
hPa
Rain since
9am
mm
Dir  Spd
km/h
Gust
km/h
Spd
kts
Gust
kts
19/11:30pm 16.0 15.3 13.1 83 1.6 W 9 11 5 6 1015.1 1015.1 0.0
19/11:00pm 16.6 15.4 12.8 78 2.1 W 11 15 6 8 1015.2 1015.2 0.0
19/10:30pm 18.6 17.3 12.6 68 3.4 N 11 13 6 7 1015.2 1015.2 0.0
19/10:00pm 17.9 16.9 13.4 75 2.5 NNE 11 11 6 6 1015.4 1015.4 0.0
19/09:30pm 18.6 18.6 14.1 75 2.6 NNE 7 7 4 4 1015.6 1015.6 0.0
19/09:00pm 18.7 18.7 13.6 72 2.9 N 6 7 3 4 1015.7 1015.7 0.0
19/08:30pm 18.5 18.3 13.1 71 3.0 NNE 6 7 3 4 1015.7 1015.7 0.0
19/08:00pm 19.2 18.7 13.8 71 3.1 NNE 9 11 5 6 1015.6 1015.6 0.0
19/07:30pm 18.9 17.7 12.9 68 3.4 NE 11 17 6 9 1015.6 1015.6 0.0
19/07:00pm 19.3 18.2 13.0 67 3.6 NE 11 13 6 7 1015.4 1015.4 0.0
19/06:30pm 19.4 17.8 12.7 65 3.8 NNE 13 17 7 9 1015.3 1015.3 0.0
19/06:00pm 19.7 17.9 13.2 66 3.7 NE 15 19 8 10 1015.0 1015.0 0.0
19/05:30pm 20.0 18.5 13.2 65 3.9 NE 13 19 7 10 1014.9 1014.9 0.0
19/05:00pm 20.5 18.2 13.0 62 4.3 NE 17 22 9 12 1014.8 1014.8 0.0
19/04:30pm 21.1 18.4 12.8 59 4.7 NE 19 24 10 13 1014.5 1014.5 0.0
19/04:00pm 21.7 18.5 11.1 51 5.9 NE 19 24 10 13 1014.4 1014.4 0.0
19/03:30pm 22.9 19.2 10.3 45 6.9 ENE 20 26 11 14 1014.3 1014.3 0.0
19/03:00pm 23.2 17.7 4.2 29 9.3 E 22 26 12 14 1014.4 1014.4 0.0
19/02:30pm 24.5 21.2 2.6 24 10.5 WNW 9 15 5 8 1014.6 1014.6 0.0
19/02:00pm 23.9 19.9 4.8 29 9.5 NNW 15 24 8 13 1014.9 1014.9 0.0
19/01:30pm 23.5 21.0 4.5 29 9.4 W 7 15 4 8 1015.2 1015.2 0.0
19/01:00pm 23.8 19.9 5.2 30 9.3 WNW 15 20 8 11 1015.6 1015.6 0.0
19/12:30pm 23.3 20.5 5.2 31 9.1 W 9 15 5 8 1016.1 1016.1 0.0
19/12:00pm 22.0 20.2 7.0 38 7.7 WNW 6 9 3 5 1016.8 1016.8 0.0
19/11:30am 21.8 19.8 7.2 39 7.5 W 7 11 4 6 1017.3 1017.3 0.0
19/11:00am 20.6 18.1 6.5 40 7.1 WNW 9 15 5 8 1017.9 1017.9 0.0
19/10:30am 19.8 17.2 7.9 46 6.1 WNW 11 15 6 8 1018.2 1018.2 0.0
19/10:00am 20.0 17.7 10.4 54 5.2 WNW 13 19 7 10 1018.6 1018.6 0.0
19/09:30am 17.5 14.2 9.7 60 4.1 WNW 17 20 9 11 1018.9 1018.9 0.0
19/09:00am 17.1 13.7 10.5 65 3.5 WNW 19 24 10 13 1019.1 1019.1 0.0
19/08:30am 16.1 13.3 11.3 73 2.6 WNW 17 22 9 12 1019.3 1019.3 0.0
19/08:00am 15.5 13.1 11.5 77 2.1 WNW 15 24 8 13 1019.3 1019.3 0.0
19/07:30am 14.0 11.1 11.0 82 1.6 WNW 17 19 9 10 1019.2 1019.2 0.0
19/07:00am 13.1 10.5 10.6 85 1.3 NW 15 19 8 10 1019.0 1019.0 0.0
19/06:30am 12.6 9.9 10.5 87 1.1 NW 15 19 8 10 1018.8 1018.8 0.0
19/06:00am 12.5 10.2 10.6 88 1.0 NW 13 17 7 9 1018.7 1018.7 0.0
19/05:30am 13.0 10.9 11.1 88 1.0 NW 13 15 7 8 1018.6 1018.6 0.0
19/05:00am 12.8 10.6 10.9 88 1.0 NW 13 17 7 9 1018.5 1018.5 0.0
19/04:30am 12.9 10.4 11.0 88 1.0 WNW 15 17 8 9 1018.5 1018.5 0.0
19/04:00am 12.7 10.5 10.8 88 1.0 NW 13 17 7 9 1018.3 1018.3 0.0
19/03:30am 13.0 10.9 11.1 88 1.0 NW 13 15 7 8 1018.4 1018.4 0.0
19/03:00am 13.2 11.5 11.1 87 1.1 NNW 11 11 6 6 1018.4 1018.4 0.0
19/02:30am 13.4 11.7 11.1 86 1.2 NNW 11 11 6 6 1018.6 1018.6 0.0
19/02:00am 13.7 11.7 11.4 86 1.2 NNW 13 15 7 8 1018.8 1018.8 0.0
19/01:30am 14.3 12.7 11.6 84 1.4 NNW 11 11 6 6 1019.1 1019.1 0.0
19/01:00am 14.4 12.8 11.6 83 1.5 NNW 11 11 6 6 1019.3 1019.3 0.0
19/12:30am 14.7 13.1 11.7 82 1.6 N 11 11 6 6 1019.3 1019.3 0.0
19/12:00am 15.1 14.0 11.9 81 1.7 NNW 9 9 5 5 1019.6 1019.6 0.0
 
Date/Time
EST
Temp
°C
App
Temp
°C
Dew
Point
°C
Rel
Hum
%
Delta-T
°C
Wind Press
QNH
hPa
Press
MSL
hPa
Rain since
9am
mm
Dir  Spd
km/h
Gust
km/h
Spd
kts
Gust
kts
18/11:30pm 15.6 15.0 12.2 80 1.9 WNW 7 9 4 5 1019.7 1019.7 0.0
18/11:00pm 15.9 14.9 12.3 79 2.0 WNW 9 13 5 7 1019.8 1019.8 0.0
18/10:30pm 15.8 14.3 12.0 78 2.1 WSW 11 13 6 7 1020.1 1020.1 0.0
18/10:00pm 16.0 14.9 12.0 77 2.2 WSW 9 9 5 5 1019.9 1019.9 0.0
18/09:30pm 16.6 16.1 12.0 74 2.5 N 6 9 3 5 1019.9 1019.9 0.0
18/09:00pm 17.2 16.5 11.9 71 2.9 NNE 7 11 4 6 1019.9 1019.9 0.0

Other formats

Comma delimited format used in spreadsheet applications
http://www.bom.gov.au/fwo/IDN60801/IDN60801.94767.axf

JavaScript Object Notation format (JSON) in row-major order
http://www.bom.gov.au/fwo/IDN60801/IDN60801.94767.json

Data quality

Most of these data are generated automatically and are frequently updated. Quality checks on data are not normally performed. It is possible for incorrect values to appear. Refer to information at About Latest Weather Observations and please check the disclaimer before using these data.